sensor_id;sensor_type;location;lat;lon;timestamp;P1;durP1;ratioP1;P2;durP2;ratioP2
32198;SDS011;19221;42.656;21.156;2023-04-05T00:00:08;38.80;;;26.90;;
32198;SDS011;19221;42.656;21.156;2023-04-05T00:02:35;43.47;;;29.45;;
32198;SDS011;19221;42.656;21.156;2023-04-05T00:05:02;45.17;;;32.13;;
32198;SDS011;19221;42.656;21.156;2023-04-05T00:07:27;40.85;;;28.13;;
32198;SDS011;19221;42.656;21.156;2023-04-05T00:09:53;38.83;;;26.25;;
32198;SDS011;19221;42.656;21.156;2023-04-05T00:12:19;38.08;;;25.40;;
32198;SDS011;19221;42.656;21.156;2023-04-05T00:14:44;37.22;;;27.02;;
32198;SDS011;19221;42.656;21.156;2023-04-05T00:17:10;37.50;;;25.50;;
32198;SDS011;19221;42.656;21.156;2023-04-05T00:19:36;34.42;;;25.98;;
32198;SDS011;19221;42.656;21.156;2023-04-05T00:22:02;31.00;;;23.05;;
32198;SDS011;19221;42.656;21.156;2023-04-05T00:24:28;35.25;;;23.10;;
32198;SDS011;19221;42.656;21.156;2023-04-05T00:26:55;31.00;;;22.15;;
32198;SDS011;19221;42.656;21.156;2023-04-05T00:29:21;28.63;;;21.70;;
32198;SDS011;19221;42.656;21.156;2023-04-05T00:31:46;32.55;;;22.85;;
32198;SDS011;19221;42.656;21.156;2023-04-05T00:34:12;29.85;;;21.45;;
32198;SDS011;19221;42.656;21.156;2023-04-05T00:36:38;29.20;;;21.95;;
32198;SDS011;19221;42.656;21.156;2023-04-05T00:39:03;28.77;;;21.13;;
32198;SDS011;19221;42.656;21.156;2023-04-05T00:41:29;26.20;;;20.20;;
32198;SDS011;19221;42.656;21.156;2023-04-05T00:43:55;31.98;;;22.42;;
32198;SDS011;19221;42.656;21.156;2023-04-05T00:46:21;28.98;;;21.10;;
32198;SDS011;19221;42.656;21.156;2023-04-05T00:48:47;27.35;;;20.73;;
32198;SDS011;19221;42.656;21.156;2023-04-05T00:51:13;32.67;;;22.30;;
32198;SDS011;19221;42.656;21.156;2023-04-05T00:53:38;30.15;;;21.80;;
32198;SDS011;19221;42.656;21.156;2023-04-05T00:56:05;27.73;;;20.58;;
32198;SDS011;19221;42.656;21.156;2023-04-05T00:58:30;26.17;;;19.88;;
32198;SDS011;19221;42.656;21.156;2023-04-05T01:03:38;32.17;;;21.67;;
32198;SDS011;19221;42.656;21.156;2023-04-05T01:11:03;29.92;;;20.95;;
32198;SDS011;19221;42.656;21.156;2023-04-05T01:13:30;26.92;;;20.83;;
32198;SDS011;19221;42.656;21.156;2023-04-05T01:15:56;27.10;;;20.27;;
32198;SDS011;19221;42.656;21.156;2023-04-05T01:18:22;31.27;;;22.23;;
32198;SDS011;19221;42.656;21.156;2023-04-05T01:21:03;27.55;;;20.27;;
32198;SDS011;19221;42.656;21.156;2023-04-05T01:26:43;27.33;;;21.02;;
32198;SDS011;19221;42.656;21.156;2023-04-05T01:29:34;27.85;;;20.20;;
32198;SDS011;19221;42.656;21.156;2023-04-05T01:34:36;23.25;;;17.38;;
32198;SDS011;19221;42.656;21.156;2023-04-05T01:37:07;24.75;;;18.05;;
32198;SDS011;19221;42.656;21.156;2023-04-05T01:42:01;25.98;;;19.05;;
32198;SDS011;19221;42.656;21.156;2023-04-05T01:44:27;24.85;;;19.17;;
32198;SDS011;19221;42.656;21.156;2023-04-05T01:46:53;26.60;;;19.13;;
32198;SDS011;19221;42.656;21.156;2023-04-05T01:49:19;25.80;;;19.05;;
32198;SDS011;19221;42.656;21.156;2023-04-05T01:51:45;22.83;;;17.65;;
32198;SDS011;19221;42.656;21.156;2023-04-05T01:54:10;27.38;;;18.70;;
32198;SDS011;19221;42.656;21.156;2023-04-05T01:56:36;27.73;;;18.80;;
32198;SDS011;19221;42.656;21.156;2023-04-05T01:59:01;24.23;;;18.30;;
32198;SDS011;19221;42.656;21.156;2023-04-05T02:01:27;21.25;;;17.63;;
32198;SDS011;19221;42.656;21.156;2023-04-05T02:03:53;28.23;;;19.15;;
32198;SDS011;19221;42.656;21.156;2023-04-05T02:06:18;29.20;;;20.17;;
32198;SDS011;19221;42.656;21.156;2023-04-05T02:08:44;24.73;;;19.08;;
32198;SDS011;19221;42.656;21.156;2023-04-05T02:11:10;23.77;;;18.38;;
32198;SDS011;19221;42.656;21.156;2023-04-05T02:13:35;23.30;;;17.80;;
32198;SDS011;19221;42.656;21.156;2023-04-05T02:16:01;25.35;;;19.40;;
32198;SDS011;19221;42.656;21.156;2023-04-05T02:18:27;23.58;;;18.40;;
32198;SDS011;19221;42.656;21.156;2023-04-05T02:21:03;21.23;;;16.45;;
32198;SDS011;19221;42.656;21.156;2023-04-05T02:23:29;21.98;;;17.23;;
32198;SDS011;19221;42.656;21.156;2023-04-05T02:25:55;19.42;;;16.13;;
32198;SDS011;19221;42.656;21.156;2023-04-05T02:28:21;21.73;;;16.90;;
32198;SDS011;19221;42.656;21.156;2023-04-05T02:30:47;20.85;;;16.48;;
32198;SDS011;19221;42.656;21.156;2023-04-05T02:33:14;24.60;;;18.13;;
32198;SDS011;19221;42.656;21.156;2023-04-05T02:35:39;22.60;;;17.85;;
32198;SDS011;19221;42.656;21.156;2023-04-05T02:38:05;22.45;;;17.55;;
32198;SDS011;19221;42.656;21.156;2023-04-05T02:40:31;24.50;;;18.05;;
32198;SDS011;19221;42.656;21.156;2023-04-05T02:42:57;24.77;;;18.60;;
32198;SDS011;19221;42.656;21.156;2023-04-05T02:45:22;24.85;;;18.55;;
32198;SDS011;19221;42.656;21.156;2023-04-05T02:47:48;24.75;;;19.67;;
32198;SDS011;19221;42.656;21.156;2023-04-05T02:50:14;22.13;;;16.45;;
32198;SDS011;19221;42.656;21.156;2023-04-05T02:52:45;22.77;;;17.95;;
32198;SDS011;19221;42.656;21.156;2023-04-05T02:55:11;22.48;;;17.30;;
32198;SDS011;19221;42.656;21.156;2023-04-05T02:57:37;23.02;;;17.17;;
32198;SDS011;19221;42.656;21.156;2023-04-05T03:00:03;23.23;;;16.73;;
32198;SDS011;19221;42.656;21.156;2023-04-05T03:02:29;22.30;;;16.67;;
32198;SDS011;19221;42.656;21.156;2023-04-05T03:04:55;20.15;;;16.00;;
32198;SDS011;19221;42.656;21.156;2023-04-05T03:07:21;17.92;;;14.23;;
32198;SDS011;19221;42.656;21.156;2023-04-05T03:09:49;19.75;;;15.13;;
32198;SDS011;19221;42.656;21.156;2023-04-05T03:12:15;20.30;;;16.20;;
32198;SDS011;19221;42.656;21.156;2023-04-05T03:14:41;20.35;;;16.63;;
32198;SDS011;19221;42.656;21.156;2023-04-05T03:17:07;20.83;;;16.38;;
32198;SDS011;19221;42.656;21.156;2023-04-05T03:19:32;21.38;;;16.02;;
32198;SDS011;19221;42.656;21.156;2023-04-05T03:22:00;17.75;;;13.55;;
32198;SDS011;19221;42.656;21.156;2023-04-05T03:24:25;17.65;;;14.38;;
32198;SDS011;19221;42.656;21.156;2023-04-05T03:26:51;24.75;;;16.70;;
32198;SDS011;19221;42.656;21.156;2023-04-05T03:29:17;20.45;;;16.40;;
32198;SDS011;19221;42.656;21.156;2023-04-05T03:31:43;20.02;;;16.50;;
32198;SDS011;19221;42.656;21.156;2023-04-05T03:37:15;18.17;;;13.90;;
32198;SDS011;19221;42.656;21.156;2023-04-05T03:39:41;19.52;;;14.77;;
32198;SDS011;19221;42.656;21.156;2023-04-05T03:42:07;17.17;;;13.98;;
32198;SDS011;19221;42.656;21.156;2023-04-05T03:44:35;20.75;;;15.48;;
32198;SDS011;19221;42.656;21.156;2023-04-05T03:47:03;22.52;;;16.95;;
32198;SDS011;19221;42.656;21.156;2023-04-05T03:49:35;20.35;;;16.63;;
32198;SDS011;19221;42.656;21.156;2023-04-05T03:52:00;21.10;;;16.25;;
32198;SDS011;19221;42.656;21.156;2023-04-05T03:54:26;20.00;;;15.63;;
32198;SDS011;19221;42.656;21.156;2023-04-05T03:56:51;19.25;;;15.15;;
32198;SDS011;19221;42.656;21.156;2023-04-05T03:59:17;23.52;;;16.13;;
32198;SDS011;19221;42.656;21.156;2023-04-05T04:01:43;19.08;;;14.65;;
32198;SDS011;19221;42.656;21.156;2023-04-05T04:04:09;19.85;;;16.15;;
32198;SDS011;19221;42.656;21.156;2023-04-05T04:06:34;20.08;;;15.70;;
32198;SDS011;19221;42.656;21.156;2023-04-05T04:09:01;19.05;;;15.15;;
32198;SDS011;19221;42.656;21.156;2023-04-05T04:11:27;20.38;;;16.27;;
32198;SDS011;19221;42.656;21.156;2023-04-05T04:13:52;19.70;;;15.85;;
32198;SDS011;19221;42.656;21.156;2023-04-05T04:16:18;19.48;;;15.43;;
32198;SDS011;19221;42.656;21.156;2023-04-05T04:18:44;22.55;;;16.67;;
32198;SDS011;19221;42.656;21.156;2023-04-05T04:21:09;18.80;;;15.00;;
32198;SDS011;19221;42.656;21.156;2023-04-05T04:23:36;18.70;;;15.50;;
32198;SDS011;19221;42.656;21.156;2023-04-05T04:26:04;18.20;;;14.23;;
32198;SDS011;19221;42.656;21.156;2023-04-05T04:28:30;19.52;;;15.13;;
32198;SDS011;19221;42.656;21.156;2023-04-05T04:30:59;17.27;;;14.63;;
32198;SDS011;19221;42.656;21.156;2023-04-05T04:33:29;19.40;;;14.80;;
32198;SDS011;19221;42.656;21.156;2023-04-05T04:35:55;16.30;;;13.65;;
32198;SDS011;19221;42.656;21.156;2023-04-05T04:38:21;20.38;;;15.55;;
32198;SDS011;19221;42.656;21.156;2023-04-05T04:40:46;19.63;;;15.38;;
32198;SDS011;19221;42.656;21.156;2023-04-05T04:43:14;15.23;;;12.25;;
32198;SDS011;19221;42.656;21.156;2023-04-05T04:45:44;18.65;;;14.68;;
32198;SDS011;19221;42.656;21.156;2023-04-05T04:48:16;19.38;;;13.98;;
32198;SDS011;19221;42.656;21.156;2023-04-05T04:50:42;15.27;;;12.90;;
32198;SDS011;19221;42.656;21.156;2023-04-05T04:53:08;14.68;;;12.13;;
32198;SDS011;19221;42.656;21.156;2023-04-05T04:55:34;13.88;;;11.63;;
32198;SDS011;19221;42.656;21.156;2023-04-05T04:58:00;14.60;;;11.80;;
32198;SDS011;19221;42.656;21.156;2023-04-05T05:00:29;15.38;;;12.13;;
32198;SDS011;19221;42.656;21.156;2023-04-05T05:02:54;15.45;;;12.25;;
32198;SDS011;19221;42.656;21.156;2023-04-05T05:05:20;17.77;;;12.43;;
32198;SDS011;19221;42.656;21.156;2023-04-05T05:07:47;14.02;;;11.77;;
32198;SDS011;19221;42.656;21.156;2023-04-05T05:10:13;15.02;;;11.57;;
32198;SDS011;19221;42.656;21.156;2023-04-05T05:12:43;14.80;;;11.43;;
32198;SDS011;19221;42.656;21.156;2023-04-05T05:15:09;13.77;;;11.63;;
32198;SDS011;19221;42.656;21.156;2023-04-05T05:17:34;14.30;;;10.98;;
32198;SDS011;19221;42.656;21.156;2023-04-05T05:20:02;13.57;;;11.30;;
32198;SDS011;19221;42.656;21.156;2023-04-05T05:22:30;13.05;;;11.13;;
32198;SDS011;19221;42.656;21.156;2023-04-05T05:24:56;13.38;;;11.05;;
32198;SDS011;19221;42.656;21.156;2023-04-05T05:27:21;14.10;;;11.27;;
32198;SDS011;19221;42.656;21.156;2023-04-05T05:29:47;14.50;;;11.70;;
32198;SDS011;19221;42.656;21.156;2023-04-05T05:32:13;15.85;;;12.35;;
32198;SDS011;19221;42.656;21.156;2023-04-05T05:34:40;17.42;;;13.95;;
32198;SDS011;19221;42.656;21.156;2023-04-05T05:37:06;16.27;;;12.77;;
32198;SDS011;19221;42.656;21.156;2023-04-05T05:39:35;13.98;;;12.00;;
32198;SDS011;19221;42.656;21.156;2023-04-05T05:42:01;15.00;;;11.98;;
32198;SDS011;19221;42.656;21.156;2023-04-05T05:44:27;18.40;;;13.18;;
32198;SDS011;19221;42.656;21.156;2023-04-05T05:46:53;16.13;;;12.27;;
32198;SDS011;19221;42.656;21.156;2023-04-05T05:49:19;20.92;;;15.32;;
32198;SDS011;19221;42.656;21.156;2023-04-05T05:51:45;16.17;;;12.80;;
32198;SDS011;19221;42.656;21.156;2023-04-05T05:54:11;16.00;;;12.07;;
32198;SDS011;19221;42.656;21.156;2023-04-05T05:56:37;13.50;;;10.95;;
32198;SDS011;19221;42.656;21.156;2023-04-05T05:59:03;15.85;;;11.05;;
32198;SDS011;19221;42.656;21.156;2023-04-05T06:01:28;14.35;;;11.57;;
32198;SDS011;19221;42.656;21.156;2023-04-05T06:03:54;16.02;;;12.30;;
32198;SDS011;19221;42.656;21.156;2023-04-05T06:06:20;19.17;;;13.85;;
32198;SDS011;19221;42.656;21.156;2023-04-05T06:08:46;25.88;;;18.20;;
32198;SDS011;19221;42.656;21.156;2023-04-05T06:11:18;32.05;;;21.08;;
32198;SDS011;19221;42.656;21.156;2023-04-05T06:13:44;48.35;;;35.78;;
32198;SDS011;19221;42.656;21.156;2023-04-05T06:16:10;22.77;;;16.38;;
32198;SDS011;19221;42.656;21.156;2023-04-05T06:18:35;23.55;;;16.23;;
32198;SDS011;19221;42.656;21.156;2023-04-05T06:21:01;23.02;;;18.13;;
32198;SDS011;19221;42.656;21.156;2023-04-05T06:23:27;30.23;;;21.48;;
32198;SDS011;19221;42.656;21.156;2023-04-05T06:25:53;33.45;;;23.55;;
32198;SDS011;19221;42.656;21.156;2023-04-05T06:28:18;36.78;;;23.45;;
32198;SDS011;19221;42.656;21.156;2023-04-05T06:30:44;34.53;;;22.42;;
32198;SDS011;19221;42.656;21.156;2023-04-05T06:33:09;40.20;;;26.58;;
32198;SDS011;19221;42.656;21.156;2023-04-05T06:35:35;32.53;;;21.90;;
32198;SDS011;19221;42.656;21.156;2023-04-05T06:38:01;27.33;;;19.48;;
32198;SDS011;19221;42.656;21.156;2023-04-05T06:40:26;20.88;;;15.48;;
32198;SDS011;19221;42.656;21.156;2023-04-05T06:42:52;26.05;;;18.27;;
32198;SDS011;19221;42.656;21.156;2023-04-05T06:45:18;29.20;;;19.95;;
32198;SDS011;19221;42.656;21.156;2023-04-05T06:47:45;26.75;;;17.42;;
32198;SDS011;19221;42.656;21.156;2023-04-05T06:50:10;30.30;;;20.88;;
32198;SDS011;19221;42.656;21.156;2023-04-05T06:52:36;26.40;;;18.50;;
32198;SDS011;19221;42.656;21.156;2023-04-05T06:55:02;27.40;;;17.98;;
32198;SDS011;19221;42.656;21.156;2023-04-05T06:57:29;26.55;;;19.30;;
32198;SDS011;19221;42.656;21.156;2023-04-05T06:59:54;28.35;;;20.17;;
32198;SDS011;19221;42.656;21.156;2023-04-05T07:02:20;29.83;;;21.60;;
32198;SDS011;19221;42.656;21.156;2023-04-05T07:04:46;35.72;;;24.15;;
32198;SDS011;19221;42.656;21.156;2023-04-05T07:07:12;25.88;;;19.50;;
32198;SDS011;19221;42.656;21.156;2023-04-05T07:09:38;29.05;;;21.13;;
32198;SDS011;19221;42.656;21.156;2023-04-05T07:12:04;33.90;;;22.85;;
32198;SDS011;19221;42.656;21.156;2023-04-05T07:14:31;36.25;;;25.25;;
32198;SDS011;19221;42.656;21.156;2023-04-05T07:16:57;17.60;;;13.98;;
32198;SDS011;19221;42.656;21.156;2023-04-05T07:19:22;17.10;;;14.05;;
32198;SDS011;19221;42.656;21.156;2023-04-05T07:21:48;18.30;;;13.93;;
32198;SDS011;19221;42.656;21.156;2023-04-05T07:24:14;18.35;;;13.13;;
32198;SDS011;19221;42.656;21.156;2023-04-05T07:26:40;25.17;;;15.82;;
32198;SDS011;19221;42.656;21.156;2023-04-05T07:29:05;19.88;;;14.18;;
32198;SDS011;19221;42.656;21.156;2023-04-05T07:31:33;19.33;;;12.82;;
32198;SDS011;19221;42.656;21.156;2023-04-05T07:34:01;17.42;;;12.15;;
32198;SDS011;19221;42.656;21.156;2023-04-05T07:36:27;10.60;;;8.52;;
32198;SDS011;19221;42.656;21.156;2023-04-05T07:38:55;12.80;;;8.20;;
32198;SDS011;19221;42.656;21.156;2023-04-05T07:41:21;13.43;;;9.98;;
32198;SDS011;19221;42.656;21.156;2023-04-05T07:43:48;11.43;;;8.05;;
32198;SDS011;19221;42.656;21.156;2023-04-05T07:46:14;9.82;;;8.70;;
32198;SDS011;19221;42.656;21.156;2023-04-05T07:48:40;15.10;;;10.95;;
32198;SDS011;19221;42.656;21.156;2023-04-05T07:51:06;16.42;;;12.38;;
32198;SDS011;19221;42.656;21.156;2023-04-05T07:53:33;11.25;;;8.73;;
32198;SDS011;19221;42.656;21.156;2023-04-05T07:56:02;13.65;;;10.52;;
32198;SDS011;19221;42.656;21.156;2023-04-05T07:58:28;11.57;;;9.52;;
32198;SDS011;19221;42.656;21.156;2023-04-05T08:01:01;11.82;;;9.02;;
32198;SDS011;19221;42.656;21.156;2023-04-05T08:03:28;16.02;;;11.98;;
32198;SDS011;19221;42.656;21.156;2023-04-05T08:05:53;17.08;;;12.98;;
32198;SDS011;19221;42.656;21.156;2023-04-05T08:08:19;10.75;;;8.38;;
32198;SDS011;19221;42.656;21.156;2023-04-05T08:10:45;7.50;;;5.97;;
32198;SDS011;19221;42.656;21.156;2023-04-05T08:13:12;6.22;;;5.57;;
32198;SDS011;19221;42.656;21.156;2023-04-05T08:15:38;7.60;;;6.45;;
32198;SDS011;19221;42.656;21.156;2023-04-05T08:18:04;8.38;;;6.22;;
32198;SDS011;19221;42.656;21.156;2023-04-05T08:20:29;8.15;;;6.55;;
32198;SDS011;19221;42.656;21.156;2023-04-05T08:22:55;13.55;;;8.95;;
32198;SDS011;19221;42.656;21.156;2023-04-05T08:25:21;10.77;;;7.10;;
32198;SDS011;19221;42.656;21.156;2023-04-05T08:27:46;21.05;;;13.32;;
32198;SDS011;19221;42.656;21.156;2023-04-05T08:30:12;18.08;;;11.57;;
32198;SDS011;19221;42.656;21.156;2023-04-05T08:32:38;9.70;;;7.00;;
32198;SDS011;19221;42.656;21.156;2023-04-05T08:35:03;18.80;;;11.07;;
32198;SDS011;19221;42.656;21.156;2023-04-05T08:37:33;10.38;;;7.65;;
32198;SDS011;19221;42.656;21.156;2023-04-05T08:39:59;14.38;;;10.25;;
32198;SDS011;19221;42.656;21.156;2023-04-05T08:42:26;16.35;;;9.02;;
32198;SDS011;19221;42.656;21.156;2023-04-05T08:44:53;35.65;;;10.27;;
32198;SDS011;19221;42.656;21.156;2023-04-05T08:47:20;7.90;;;5.78;;
32198;SDS011;19221;42.656;21.156;2023-04-05T08:49:47;8.13;;;6.45;;
32198;SDS011;19221;42.656;21.156;2023-04-05T08:52:13;8.20;;;7.03;;
32198;SDS011;19221;42.656;21.156;2023-04-05T08:54:39;10.27;;;5.90;;
32198;SDS011;19221;42.656;21.156;2023-04-05T08:57:04;5.78;;;4.97;;
32198;SDS011;19221;42.656;21.156;2023-04-05T08:59:31;9.57;;;6.32;;
32198;SDS011;19221;42.656;21.156;2023-04-05T09:01:59;16.75;;;8.13;;
32198;SDS011;19221;42.656;21.156;2023-04-05T09:04:28;12.75;;;7.25;;
32198;SDS011;19221;42.656;21.156;2023-04-05T09:06:56;7.38;;;5.38;;
32198;SDS011;19221;42.656;21.156;2023-04-05T09:09:23;12.85;;;9.05;;
32198;SDS011;19221;42.656;21.156;2023-04-05T09:11:50;14.07;;;9.57;;
32198;SDS011;19221;42.656;21.156;2023-04-05T09:14:16;5.45;;;4.60;;
32198;SDS011;19221;42.656;21.156;2023-04-05T09:16:42;9.18;;;6.13;;
32198;SDS011;19221;42.656;21.156;2023-04-05T09:19:08;27.80;;;10.23;;
32198;SDS011;19221;42.656;21.156;2023-04-05T09:29:42;10.32;;;6.88;;
32198;SDS011;19221;42.656;21.156;2023-04-05T09:32:09;7.55;;;6.18;;
32198;SDS011;19221;42.656;21.156;2023-04-05T09:34:35;14.73;;;8.77;;
32198;SDS011;19221;42.656;21.156;2023-04-05T09:37:19;15.23;;;8.15;;
32198;SDS011;19221;42.656;21.156;2023-04-05T09:42:11;14.88;;;7.15;;
32198;SDS011;19221;42.656;21.156;2023-04-05T09:47:26;12.55;;;7.63;;
32198;SDS011;19221;42.656;21.156;2023-04-05T09:49:58;10.43;;;7.85;;
32198;SDS011;19221;42.656;21.156;2023-04-05T09:52:25;6.72;;;5.80;;
32198;SDS011;19221;42.656;21.156;2023-04-05T09:54:54;7.50;;;5.25;;
32198;SDS011;19221;42.656;21.156;2023-04-05T09:57:24;7.05;;;5.72;;
32198;SDS011;19221;42.656;21.156;2023-04-05T09:59:53;8.00;;;6.43;;
32198;SDS011;19221;42.656;21.156;2023-04-05T10:02:22;11.13;;;7.90;;
32198;SDS011;19221;42.656;21.156;2023-04-05T10:04:48;6.45;;;5.60;;
32198;SDS011;19221;42.656;21.156;2023-04-05T10:07:14;5.25;;;4.60;;
32198;SDS011;19221;42.656;21.156;2023-04-05T10:09:40;12.32;;;7.97;;
32198;SDS011;19221;42.656;21.156;2023-04-05T10:12:07;18.58;;;9.90;;
32198;SDS011;19221;42.656;21.156;2023-04-05T10:14:35;6.45;;;5.57;;
32198;SDS011;19221;42.656;21.156;2023-04-05T10:17:08;7.22;;;5.28;;
32198;SDS011;19221;42.656;21.156;2023-04-05T10:19:40;7.57;;;6.28;;
32198;SDS011;19221;42.656;21.156;2023-04-05T10:22:16;7.60;;;6.10;;
32198;SDS011;19221;42.656;21.156;2023-04-05T10:25:01;9.65;;;6.93;;
32198;SDS011;19221;42.656;21.156;2023-04-05T10:27:41;7.28;;;6.50;;
32198;SDS011;19221;42.656;21.156;2023-04-05T10:30:11;9.10;;;6.90;;
32198;SDS011;19221;42.656;21.156;2023-04-05T10:35:12;10.25;;;7.68;;
32198;SDS011;19221;42.656;21.156;2023-04-05T10:37:45;32.08;;;14.18;;
32198;SDS011;19221;42.656;21.156;2023-04-05T10:40:13;11.50;;;7.97;;
32198;SDS011;19221;42.656;21.156;2023-04-05T10:42:42;9.77;;;7.65;;
32198;SDS011;19221;42.656;21.156;2023-04-05T10:45:09;12.13;;;9.18;;
32198;SDS011;19221;42.656;21.156;2023-04-05T10:47:49;9.77;;;7.05;;
32198;SDS011;19221;42.656;21.156;2023-04-05T10:50:19;15.25;;;9.02;;
32198;SDS011;19221;42.656;21.156;2023-04-05T10:52:47;10.48;;;6.80;;
32198;SDS011;19221;42.656;21.156;2023-04-05T10:55:14;8.07;;;6.25;;
32198;SDS011;19221;42.656;21.156;2023-04-05T10:57:42;10.10;;;8.45;;
32198;SDS011;19221;42.656;21.156;2023-04-05T11:00:09;12.75;;;9.75;;
32198;SDS011;19221;42.656;21.156;2023-04-05T11:02:35;15.32;;;9.85;;
32198;SDS011;19221;42.656;21.156;2023-04-05T11:05:03;7.88;;;6.20;;
32198;SDS011;19221;42.656;21.156;2023-04-05T11:07:42;10.23;;;6.60;;
32198;SDS011;19221;42.656;21.156;2023-04-05T11:10:13;9.20;;;7.03;;
32198;SDS011;19221;42.656;21.156;2023-04-05T11:18:06;8.10;;;6.57;;
32198;SDS011;19221;42.656;21.156;2023-04-05T11:20:42;10.90;;;6.00;;
32198;SDS011;19221;42.656;21.156;2023-04-05T11:23:09;7.28;;;5.95;;
32198;SDS011;19221;42.656;21.156;2023-04-05T11:25:38;9.57;;;7.00;;
32198;SDS011;19221;42.656;21.156;2023-04-05T11:28:06;7.97;;;6.60;;
32198;SDS011;19221;42.656;21.156;2023-04-05T11:30:50;8.18;;;6.28;;
32198;SDS011;19221;42.656;21.156;2023-04-05T11:36:02;9.60;;;7.90;;
32198;SDS011;19221;42.656;21.156;2023-04-05T11:38:28;9.43;;;7.75;;
32198;SDS011;19221;42.656;21.156;2023-04-05T11:43:32;7.65;;;5.45;;
32198;SDS011;19221;42.656;21.156;2023-04-05T11:46:01;8.77;;;6.68;;
32198;SDS011;19221;42.656;21.156;2023-04-05T11:48:27;13.10;;;9.45;;
32198;SDS011;19221;42.656;21.156;2023-04-05T11:50:53;7.00;;;6.30;;
32198;SDS011;19221;42.656;21.156;2023-04-05T11:53:18;12.45;;;9.00;;
32198;SDS011;19221;42.656;21.156;2023-04-05T11:55:46;8.55;;;7.65;;
32198;SDS011;19221;42.656;21.156;2023-04-05T11:58:13;8.32;;;7.03;;
32198;SDS011;19221;42.656;21.156;2023-04-05T12:00:42;9.63;;;7.45;;
32198;SDS011;19221;42.656;21.156;2023-04-05T12:03:14;9.80;;;8.25;;
32198;SDS011;19221;42.656;21.156;2023-04-05T12:08:11;11.55;;;8.18;;
32198;SDS011;19221;42.656;21.156;2023-04-05T12:10:37;7.45;;;6.50;;
32198;SDS011;19221;42.656;21.156;2023-04-05T12:13:03;22.40;;;11.38;;
32198;SDS011;19221;42.656;21.156;2023-04-05T12:15:28;10.02;;;7.35;;
32198;SDS011;19221;42.656;21.156;2023-04-05T12:17:54;10.10;;;7.10;;
32198;SDS011;19221;42.656;21.156;2023-04-05T12:20:23;11.20;;;9.05;;
32198;SDS011;19221;42.656;21.156;2023-04-05T12:22:50;10.60;;;8.95;;
32198;SDS011;19221;42.656;21.156;2023-04-05T12:25:16;13.52;;;8.07;;
32198;SDS011;19221;42.656;21.156;2023-04-05T12:27:42;13.38;;;10.00;;
32198;SDS011;19221;42.656;21.156;2023-04-05T12:30:09;11.98;;;8.70;;
32198;SDS011;19221;42.656;21.156;2023-04-05T12:32:43;11.13;;;9.23;;
32198;SDS011;19221;42.656;21.156;2023-04-05T12:35:20;18.50;;;11.20;;
32198;SDS011;19221;42.656;21.156;2023-04-05T12:37:46;15.02;;;11.40;;
32198;SDS011;19221;42.656;21.156;2023-04-05T12:40:12;8.13;;;6.80;;
32198;SDS011;19221;42.656;21.156;2023-04-05T12:42:39;11.27;;;7.88;;
32198;SDS011;19221;42.656;21.156;2023-04-05T12:45:06;11.60;;;9.02;;
32198;SDS011;19221;42.656;21.156;2023-04-05T12:47:32;10.93;;;8.93;;
32198;SDS011;19221;42.656;21.156;2023-04-05T12:50:08;14.52;;;10.93;;
32198;SDS011;19221;42.656;21.156;2023-04-05T12:52:34;13.50;;;9.82;;
32198;SDS011;19221;42.656;21.156;2023-04-05T12:55:00;12.23;;;7.97;;
32198;SDS011;19221;42.656;21.156;2023-04-05T12:57:30;8.70;;;7.80;;
32198;SDS011;19221;42.656;21.156;2023-04-05T12:59:56;10.70;;;8.75;;
32198;SDS011;19221;42.656;21.156;2023-04-05T13:02:21;17.63;;;11.77;;
32198;SDS011;19221;42.656;21.156;2023-04-05T13:04:47;13.45;;;11.02;;
32198;SDS011;19221;42.656;21.156;2023-04-05T13:07:12;12.82;;;10.30;;
32198;SDS011;19221;42.656;21.156;2023-04-05T13:09:38;16.63;;;11.88;;
32198;SDS011;19221;42.656;21.156;2023-04-05T13:12:04;15.32;;;11.77;;
32198;SDS011;19221;42.656;21.156;2023-04-05T13:14:31;13.65;;;10.95;;
32198;SDS011;19221;42.656;21.156;2023-04-05T13:16:56;16.05;;;11.50;;
32198;SDS011;19221;42.656;21.156;2023-04-05T13:19:22;20.02;;;15.15;;
32198;SDS011;19221;42.656;21.156;2023-04-05T13:21:48;18.33;;;13.93;;
32198;SDS011;19221;42.656;21.156;2023-04-05T13:24:13;22.33;;;16.58;;
32198;SDS011;19221;42.656;21.156;2023-04-05T13:26:39;22.73;;;15.35;;
32198;SDS011;19221;42.656;21.156;2023-04-05T13:29:05;15.77;;;11.40;;
32198;SDS011;19221;42.656;21.156;2023-04-05T13:31:31;16.10;;;11.00;;
32198;SDS011;19221;42.656;21.156;2023-04-05T13:33:57;17.33;;;12.35;;
32198;SDS011;19221;42.656;21.156;2023-04-05T13:36:23;11.73;;;9.45;;
32198;SDS011;19221;42.656;21.156;2023-04-05T13:38:49;12.57;;;9.93;;
32198;SDS011;19221;42.656;21.156;2023-04-05T13:41:14;17.98;;;12.73;;
32198;SDS011;19221;42.656;21.156;2023-04-05T13:43:40;13.65;;;9.40;;
32198;SDS011;19221;42.656;21.156;2023-04-05T13:46:06;23.05;;;15.45;;
32198;SDS011;19221;42.656;21.156;2023-04-05T13:48:31;16.02;;;11.25;;
32198;SDS011;19221;42.656;21.156;2023-04-05T13:50:57;15.52;;;10.93;;
32198;SDS011;19221;42.656;21.156;2023-04-05T13:53:23;22.63;;;12.73;;
32198;SDS011;19221;42.656;21.156;2023-04-05T13:55:48;19.02;;;13.77;;
32198;SDS011;19221;42.656;21.156;2023-04-05T13:58:14;16.90;;;11.80;;
32198;SDS011;19221;42.656;21.156;2023-04-05T14:00:40;18.08;;;13.20;;
32198;SDS011;19221;42.656;21.156;2023-04-05T14:03:06;16.00;;;13.27;;
32198;SDS011;19221;42.656;21.156;2023-04-05T14:05:32;18.17;;;14.35;;
32198;SDS011;19221;42.656;21.156;2023-04-05T14:07:57;18.27;;;14.10;;
32198;SDS011;19221;42.656;21.156;2023-04-05T14:10:23;10.85;;;8.40;;
32198;SDS011;19221;42.656;21.156;2023-04-05T14:12:48;11.45;;;9.13;;
32198;SDS011;19221;42.656;21.156;2023-04-05T14:15:14;11.48;;;9.30;;
32198;SDS011;19221;42.656;21.156;2023-04-05T14:17:40;14.93;;;12.05;;
32198;SDS011;19221;42.656;21.156;2023-04-05T14:20:06;24.27;;;15.88;;
32198;SDS011;19221;42.656;21.156;2023-04-05T14:22:32;22.30;;;16.30;;
32198;SDS011;19221;42.656;21.156;2023-04-05T14:24:58;17.15;;;12.85;;
32198;SDS011;19221;42.656;21.156;2023-04-05T14:27:23;23.55;;;15.88;;
32198;SDS011;19221;42.656;21.156;2023-04-05T14:29:52;18.25;;;14.13;;
32198;SDS011;19221;42.656;21.156;2023-04-05T14:32:22;20.20;;;14.85;;
32198;SDS011;19221;42.656;21.156;2023-04-05T14:34:48;23.75;;;17.73;;
32198;SDS011;19221;42.656;21.156;2023-04-05T14:37:13;22.23;;;14.23;;
32198;SDS011;19221;42.656;21.156;2023-04-05T14:39:39;13.18;;;9.88;;
32198;SDS011;19221;42.656;21.156;2023-04-05T14:42:05;16.67;;;12.50;;
32198;SDS011;19221;42.656;21.156;2023-04-05T14:44:31;22.38;;;16.70;;
32198;SDS011;19221;42.656;21.156;2023-04-05T14:46:56;16.65;;;13.13;;
32198;SDS011;19221;42.656;21.156;2023-04-05T14:49:22;16.13;;;10.82;;
32198;SDS011;19221;42.656;21.156;2023-04-05T14:51:48;13.70;;;10.90;;
32198;SDS011;19221;42.656;21.156;2023-04-05T14:54:13;16.65;;;12.63;;
32198;SDS011;19221;42.656;21.156;2023-04-05T14:56:40;15.98;;;11.88;;
32198;SDS011;19221;42.656;21.156;2023-04-05T14:59:07;15.27;;;11.18;;